Prilep, Macedonia
Current Conditions -  °F | °C
As of 9:00 AM on Friday 19 Dec 2014 (Local Time) from LWSK Reporting Station
Haze Haze  
Wind Chill: 36°   Ceiling: Unl
Heat Index: 36°   Visibility: 3mi
Dew Point: 36°   Wind: 2mph
Humidity: 100%   Direction: 60°ENE
Pressure: 30.27"   Gusts: NA
Location:  41.36°N, 21.56°E
Report Text: LWSK 190700Z 06002KT 5000 BR SCT004 SCT050 02/02 Q1025 NOSIG
Loading
Personal Weather Stations






























Interactive Weather Map New forecast layout! Learn more

10-Day Weather Forecast

Advertisements
Track Severe Weather on mobile